createdAt,value
2022-10-02T00:00:10.136Z,7.89
2022-10-02T00:00:20.647Z,7.89
2022-10-02T00:00:31.155Z,7.90
2022-10-02T00:00:41.662Z,7.89
2022-10-02T00:00:52.170Z,7.89
2022-10-02T00:01:02.675Z,7.90
2022-10-02T00:01:13.266Z,7.89
2022-10-02T00:01:23.709Z,7.89
2022-10-02T00:01:34.260Z,7.87
2022-10-02T00:01:44.797Z,7.87
2022-10-02T00:01:55.303Z,7.87
2022-10-02T00:02:05.714Z,7.89
2022-10-02T00:02:16.220Z,7.86
2022-10-02T00:02:26.728Z,7.86
2022-10-02T00:02:37.239Z,7.86
2022-10-02T00:02:47.735Z,7.86
2022-10-02T00:02:58.246Z,7.85
2022-10-02T00:03:08.749Z,7.85
2022-10-02T00:03:19.257Z,7.83
2022-10-02T00:03:29.765Z,7.82
2022-10-02T00:03:40.270Z,7.83
2022-10-02T00:03:50.819Z,7.83
2022-10-02T00:04:01.411Z,7.82
2022-10-02T00:04:11.865Z,7.82
2022-10-02T00:04:22.385Z,7.82
2022-10-02T00:04:32.833Z,7.80
2022-10-02T00:04:43.318Z,7.82
2022-10-02T00:04:53.822Z,7.80
2022-10-02T00:05:04.325Z,7.79
2022-10-02T00:05:14.836Z,7.80
2022-10-02T00:05:25.342Z,7.79
2022-10-02T00:05:35.848Z,7.77
2022-10-02T00:05:46.351Z,7.79
2022-10-02T00:05:56.859Z,7.77
2022-10-02T00:06:07.361Z,7.77
2022-10-02T00:06:17.868Z,7.75
2022-10-02T00:06:28.377Z,7.77
2022-10-02T00:06:39.065Z,7.79
2022-10-02T00:06:49.385Z,7.79
2022-10-02T00:06:59.895Z,7.77
2022-10-02T00:07:10.398Z,7.77
2022-10-02T00:07:20.909Z,7.79
2022-10-02T00:07:31.412Z,7.80
2022-10-02T00:07:41.925Z,7.79
2022-10-02T00:07:52.418Z,7.80
2022-10-02T00:08:02.947Z,7.79
2022-10-02T00:08:13.435Z,7.80
2022-10-02T00:08:24.410Z,7.79
2022-10-02T00:08:34.442Z,7.79
2022-10-02T00:08:44.964Z,7.80
2022-10-02T00:08:55.457Z,7.80
2022-10-02T00:09:05.969Z,7.79
2022-10-02T00:09:16.472Z,7.79
2022-10-02T00:09:26.978Z,7.79
2022-10-02T00:09:37.481Z,7.77
2022-10-02T00:09:47.994Z,7.77
2022-10-02T00:09:58.501Z,7.77
2022-10-02T00:10:09.015Z,7.75
2022-10-02T00:10:19.511Z,7.75
2022-10-02T00:10:30.018Z,7.75
2022-10-02T00:10:40.526Z,7.75
2022-10-02T00:10:51.031Z,7.75
2022-10-02T00:11:01.539Z,7.74
2022-10-02T00:11:12.045Z,7.74
2022-10-02T00:11:22.567Z,7.74
2022-10-02T00:11:33.064Z,7.74
2022-10-02T00:11:43.561Z,7.69
2022-10-02T00:11:54.075Z,7.72
2022-10-02T00:12:04.576Z,7.71
2022-10-02T00:12:15.113Z,7.69
2022-10-02T00:12:25.591Z,7.68
2022-10-02T00:12:36.180Z,7.69
2022-10-02T00:12:46.607Z,7.69
2022-10-02T00:12:57.121Z,7.69
2022-10-02T00:13:07.618Z,7.67
2022-10-02T00:13:18.123Z,7.67
2022-10-02T00:13:28.623Z,7.67
2022-10-02T00:13:39.139Z,7.64
2022-10-02T00:13:49.638Z,7.64
2022-10-02T00:14:00.164Z,7.64
2022-10-02T00:14:10.651Z,7.63
2022-10-02T00:14:21.163Z,7.61
2022-10-02T00:14:31.660Z,7.61
2022-10-02T00:14:42.172Z,7.61
2022-10-02T00:14:52.707Z,7.60
2022-10-02T00:15:03.182Z,7.60
2022-10-02T00:15:13.687Z,7.58
2022-10-02T00:15:24.199Z,7.58
2022-10-02T00:15:34.702Z,7.55
2022-10-02T00:15:45.209Z,7.55
2022-10-02T00:15:55.714Z,7.57
2022-10-02T00:16:06.244Z,7.53
2022-10-02T00:16:16.805Z,7.55
2022-10-02T00:16:27.287Z,7.53
2022-10-02T00:16:38.163Z,7.53
2022-10-02T00:16:48.319Z,7.50
2022-10-02T00:16:58.822Z,7.49
2022-10-02T00:17:09.288Z,7.50
2022-10-02T00:17:19.766Z,7.50
2022-10-02T00:17:30.273Z,7.52
2022-10-02T00:17:40.779Z,7.53
2022-10-02T00:17:51.284Z,7.52
2022-10-02T00:18:01.791Z,7.55
2022-10-02T00:18:12.303Z,7.57
2022-10-02T00:18:22.808Z,7.53
2022-10-02T00:18:33.322Z,7.55
2022-10-02T00:18:43.836Z,7.55
2022-10-02T00:18:54.337Z,7.55
2022-10-02T00:19:04.842Z,7.57
2022-10-02T00:19:15.354Z,7.55
2022-10-02T00:19:25.859Z,7.55
2022-10-02T00:19:36.361Z,7.53
2022-10-02T00:19:46.866Z,7.53
2022-10-02T00:19:57.381Z,7.53
2022-10-02T00:20:07.888Z,7.53
2022-10-02T00:20:18.400Z,7.55
2022-10-02T00:20:28.908Z,7.52
2022-10-02T00:20:39.405Z,7.50
2022-10-02T00:20:49.925Z,7.49
2022-10-02T00:21:00.426Z,7.49
2022-10-02T00:21:10.955Z,7.49
2022-10-02T00:21:21.439Z,7.49
2022-10-02T00:21:31.943Z,7.48
2022-10-02T00:21:42.451Z,7.50
2022-10-02T00:21:52.959Z,7.52
2022-10-02T00:22:03.471Z,7.52
2022-10-02T00:22:13.979Z,7.53
2022-10-02T00:22:24.492Z,7.50
2022-10-02T00:22:34.994Z,7.52
2022-10-02T00:22:45.500Z,7.53
2022-10-02T00:22:56.046Z,7.57
2022-10-02T00:23:06.517Z,7.55
2022-10-02T00:23:17.012Z,7.60
2022-10-02T00:23:27.525Z,7.60
2022-10-02T00:23:38.039Z,7.61
2022-10-02T00:23:48.535Z,7.64
2022-10-02T00:23:59.041Z,7.67
2022-10-02T00:24:09.559Z,7.67
2022-10-02T00:24:20.054Z,7.69
2022-10-02T00:24:30.582Z,7.68
2022-10-02T00:24:41.067Z,7.69
2022-10-02T00:24:51.580Z,7.69
2022-10-02T00:25:02.086Z,7.71
2022-10-02T00:25:12.594Z,7.71
2022-10-02T00:25:23.108Z,7.71
2022-10-02T00:25:33.617Z,7.72
2022-10-02T00:25:44.115Z,7.72
2022-10-02T00:25:54.634Z,7.71
2022-10-02T00:26:05.132Z,7.71
2022-10-02T00:26:15.642Z,7.72
2022-10-02T00:26:26.156Z,7.72
2022-10-02T00:26:36.932Z,7.74
2022-10-02T00:26:47.159Z,7.75
2022-10-02T00:26:57.664Z,7.75
2022-10-02T00:27:08.170Z,7.75
2022-10-02T00:27:18.680Z,7.79
2022-10-02T00:27:29.186Z,7.79
2022-10-02T00:27:39.697Z,7.82
2022-10-02T00:27:50.237Z,7.82
2022-10-02T00:28:00.840Z,7.82
2022-10-02T00:28:11.280Z,7.83
2022-10-02T00:28:21.750Z,7.83
2022-10-02T00:28:32.300Z,7.83
2022-10-02T00:28:42.738Z,7.83
2022-10-02T00:28:53.245Z,7.85
2022-10-02T00:29:03.751Z,7.85
2022-10-02T00:29:14.263Z,7.83
2022-10-02T00:29:24.771Z,7.83
2022-10-02T00:29:35.301Z,7.83
2022-10-02T00:29:45.783Z,7.82
2022-10-02T00:29:56.316Z,7.83
2022-10-02T00:30:06.796Z,7.83
2022-10-02T00:30:17.302Z,7.86
2022-10-02T00:30:27.807Z,7.85
2022-10-02T00:30:38.308Z,7.86
2022-10-02T00:30:49.248Z,7.87
2022-10-02T00:30:59.324Z,7.87
2022-10-02T00:31:09.849Z,7.87
2022-10-02T00:31:20.405Z,7.89
2022-10-02T00:31:30.901Z,7.92
2022-10-02T00:31:41.423Z,7.95
2022-10-02T00:31:51.921Z,7.98
2022-10-02T00:32:02.394Z,7.97
2022-10-02T00:32:12.890Z,7.97
2022-10-02T00:32:23.372Z,7.98
2022-10-02T00:32:33.886Z,8.00
2022-10-02T00:32:44.385Z,8.00
2022-10-02T00:32:54.895Z,8.00
2022-10-02T00:33:05.399Z,8.00
2022-10-02T00:33:15.916Z,8.01
2022-10-02T00:33:26.407Z,7.98
2022-10-02T00:33:36.929Z,8.00
2022-10-02T00:33:47.420Z,8.02
2022-10-02T00:33:57.931Z,8.00
2022-10-02T00:34:09.316Z,8.00
2022-10-02T00:34:18.946Z,8.01
2022-10-02T00:34:29.457Z,8.01
2022-10-02T00:34:39.964Z,8.02
2022-10-02T00:34:50.479Z,8.02
2022-10-02T00:35:00.984Z,8.04
2022-10-02T00:35:11.491Z,8.04
2022-10-02T00:35:21.999Z,8.02
2022-10-02T00:35:32.504Z,8.02
2022-10-02T00:35:43.012Z,8.02
2022-10-02T00:35:53.524Z,8.02
2022-10-02T00:36:04.026Z,8.04
2022-10-02T00:36:14.532Z,8.04
2022-10-02T00:36:25.045Z,8.04
2022-10-02T00:36:35.893Z,8.04
2022-10-02T00:36:46.086Z,8.02
2022-10-02T00:36:56.569Z,8.04
2022-10-02T00:37:07.076Z,8.04
2022-10-02T00:37:17.584Z,8.05
2022-10-02T00:37:28.091Z,8.04
2022-10-02T00:37:38.597Z,8.04
2022-10-02T00:37:49.104Z,8.02
2022-10-02T00:37:59.608Z,8.02
2022-10-02T00:38:10.122Z,8.04
2022-10-02T00:38:20.623Z,8.04
2022-10-02T00:38:31.136Z,8.04
2022-10-02T00:38:41.644Z,8.04
2022-10-02T00:38:52.151Z,8.02
2022-10-02T00:39:02.656Z,8.02
2022-10-02T00:39:13.167Z,8.02
2022-10-02T00:39:23.663Z,8.00
2022-10-02T00:39:34.182Z,8.04
2022-10-02T00:39:44.679Z,8.07
2022-10-02T00:39:55.185Z,8.05
2022-10-02T00:40:05.689Z,8.07
2022-10-02T00:40:16.204Z,8.05
2022-10-02T00:40:26.706Z,8.05
2022-10-02T00:40:37.216Z,8.07
2022-10-02T00:40:47.719Z,8.07
2022-10-02T00:40:58.226Z,8.08
2022-10-02T00:41:08.732Z,8.10
2022-10-02T00:41:19.267Z,8.10
2022-10-02T00:41:29.748Z,8.11
2022-10-02T00:41:40.260Z,8.11
2022-10-02T00:41:50.763Z,8.10
2022-10-02T00:42:01.281Z,8.11
2022-10-02T00:42:11.772Z,8.11
2022-10-02T00:42:22.282Z,8.12
2022-10-02T00:42:32.784Z,8.12
2022-10-02T00:42:43.295Z,8.11
2022-10-02T00:42:53.801Z,8.11
2022-10-02T00:43:04.308Z,8.11
2022-10-02T00:43:14.815Z,8.11
2022-10-02T00:43:25.326Z,8.12
2022-10-02T00:43:35.829Z,8.18
2022-10-02T00:43:46.339Z,8.18
2022-10-02T00:43:56.836Z,8.20
2022-10-02T00:44:07.381Z,8.23
2022-10-02T00:44:17.854Z,8.25
2022-10-02T00:44:28.365Z,8.25
2022-10-02T00:44:38.873Z,8.28
2022-10-02T00:44:49.377Z,8.28
2022-10-02T00:44:59.914Z,8.29
2022-10-02T00:45:10.400Z,8.33
2022-10-02T00:45:20.901Z,8.34
2022-10-02T00:45:31.434Z,8.34
2022-10-02T00:45:41.964Z,8.34
2022-10-02T00:45:52.491Z,8.37
2022-10-02T00:46:03.008Z,8.36
2022-10-02T00:46:13.478Z,8.38
2022-10-02T00:46:23.926Z,8.37
2022-10-02T00:46:34.801Z,8.36
2022-10-02T00:46:44.942Z,8.37
2022-10-02T00:46:55.452Z,8.37
2022-10-02T00:47:05.959Z,8.36
2022-10-02T00:47:16.476Z,8.37
2022-10-02T00:47:26.976Z,8.36
2022-10-02T00:47:37.481Z,8.37
2022-10-02T00:47:47.991Z,8.38
2022-10-02T00:47:58.487Z,8.38
2022-10-02T00:48:09.023Z,8.36
2022-10-02T00:48:19.505Z,8.36
2022-10-02T00:48:30.028Z,8.36
2022-10-02T00:48:40.522Z,8.36
2022-10-02T00:48:51.029Z,8.36
2022-10-02T00:49:01.534Z,8.36
2022-10-02T00:49:12.070Z,8.37
2022-10-02T00:49:22.544Z,8.37
2022-10-02T00:49:33.061Z,8.37
2022-10-02T00:49:43.558Z,8.38
2022-10-02T00:49:54.064Z,8.41
2022-10-02T00:50:04.575Z,8.41
2022-10-02T00:50:15.082Z,8.44
2022-10-02T00:50:25.587Z,8.44
2022-10-02T00:50:36.093Z,8.47
2022-10-02T00:50:46.598Z,8.48
2022-10-02T00:50:57.099Z,8.53
2022-10-02T00:51:07.609Z,8.55
2022-10-02T00:51:18.122Z,8.56
2022-10-02T00:51:28.626Z,8.58
2022-10-02T00:51:39.129Z,8.56
2022-10-02T00:51:49.637Z,8.56
2022-10-02T00:52:00.150Z,8.55
2022-10-02T00:52:10.652Z,8.59
2022-10-02T00:52:21.156Z,8.62
2022-10-02T00:52:31.669Z,8.66
2022-10-02T00:52:42.167Z,8.68
2022-10-02T00:52:52.672Z,8.65
2022-10-02T00:53:03.179Z,8.66
2022-10-02T00:53:13.689Z,8.65
2022-10-02T00:53:24.194Z,8.66
2022-10-02T00:53:34.707Z,8.65
2022-10-02T00:53:45.214Z,8.66
2022-10-02T00:53:55.723Z,8.65
2022-10-02T00:54:06.243Z,8.65
2022-10-02T00:54:16.767Z,8.66
2022-10-02T00:54:27.241Z,8.65
2022-10-02T00:54:37.749Z,8.63
2022-10-02T00:54:48.253Z,8.65
2022-10-02T00:54:58.762Z,8.65
2022-10-02T00:55:09.272Z,8.65
2022-10-02T00:55:19.785Z,8.65
2022-10-02T00:55:30.295Z,8.66
2022-10-02T00:55:40.791Z,8.66
2022-10-02T00:55:51.301Z,8.65
2022-10-02T00:56:01.805Z,8.65
2022-10-02T00:56:12.318Z,8.65
2022-10-02T00:56:22.813Z,8.65
2022-10-02T00:56:33.558Z,8.63
2022-10-02T00:56:44.653Z,8.65
2022-10-02T00:56:54.336Z,8.68
2022-10-02T00:57:04.834Z,8.68
2022-10-02T00:57:15.343Z,8.68
2022-10-02T00:57:25.853Z,8.68
2022-10-02T00:57:36.353Z,8.66
2022-10-02T00:57:46.861Z,8.68
2022-10-02T00:57:57.359Z,8.66
2022-10-02T00:58:07.871Z,8.65
2022-10-02T00:58:18.375Z,8.65
2022-10-02T00:58:28.886Z,8.65
2022-10-02T00:58:39.383Z,8.65
2022-10-02T00:58:49.896Z,8.65
2022-10-02T00:59:00.408Z,8.62
2022-10-02T00:59:10.906Z,8.62
2022-10-02T00:59:21.456Z,8.63
2022-10-02T00:59:31.914Z,8.65
2022-10-02T00:59:42.420Z,8.68
2022-10-02T00:59:52.929Z,8.66
2022-10-02T01:00:03.450Z,8.68
2022-10-02T01:00:13.939Z,8.68
2022-10-02T01:00:24.443Z,8.68
2022-10-02T01:00:35.013Z,8.70
2022-10-02T01:00:45.486Z,8.70
2022-10-02T01:00:56.043Z,8.68
2022-10-02T01:01:06.521Z,8.68
2022-10-02T01:01:17.098Z,8.66
2022-10-02T01:01:27.559Z,8.68
2022-10-02T01:01:38.005Z,8.66
2022-10-02T01:01:48.531Z,8.66
2022-10-02T01:01:59.082Z,8.68
2022-10-02T01:02:09.573Z,8.66
2022-10-02T01:02:20.105Z,8.66
2022-10-02T01:02:30.615Z,8.66
2022-10-02T01:02:41.053Z,8.66
2022-10-02T01:02:51.562Z,8.65
2022-10-02T01:03:02.078Z,8.65
2022-10-02T01:03:12.571Z,8.63
2022-10-02T01:03:23.084Z,8.63
2022-10-02T01:03:33.581Z,8.62
2022-10-02T01:03:44.096Z,8.65
2022-10-02T01:03:54.596Z,8.63
2022-10-02T01:04:05.097Z,8.62
2022-10-02T01:04:15.608Z,8.63
2022-10-02T01:04:26.126Z,8.62
2022-10-02T01:04:36.613Z,8.62
2022-10-02T01:04:47.124Z,8.61
2022-10-02T01:04:57.625Z,8.61
2022-10-02T01:05:08.142Z,8.59
2022-10-02T01:05:18.641Z,8.59
2022-10-02T01:05:29.149Z,8.58
2022-10-02T01:05:39.652Z,8.59
2022-10-02T01:05:50.161Z,8.56
2022-10-02T01:06:00.674Z,8.55
2022-10-02T01:06:11.172Z,8.55
2022-10-02T01:06:21.726Z,8.55
2022-10-02T01:06:32.198Z,8.53
2022-10-02T01:06:42.697Z,8.52
2022-10-02T01:06:53.200Z,8.50
2022-10-02T01:07:03.710Z,8.48
2022-10-02T01:07:14.210Z,8.47
2022-10-02T01:07:24.719Z,8.47
2022-10-02T01:07:35.229Z,8.47
2022-10-02T01:07:45.735Z,8.44
2022-10-02T01:07:56.247Z,8.44
2022-10-02T01:08:06.751Z,8.43
2022-10-02T01:08:17.264Z,8.43
2022-10-02T01:08:27.770Z,8.44
2022-10-02T01:08:38.285Z,8.43
2022-10-02T01:08:48.788Z,8.41
2022-10-02T01:08:59.300Z,8.44
2022-10-02T01:09:09.809Z,8.45
2022-10-02T01:09:20.313Z,8.45
2022-10-02T01:09:30.818Z,8.48
2022-10-02T01:09:41.327Z,8.48
2022-10-02T01:09:51.832Z,8.50
2022-10-02T01:10:02.347Z,8.52
2022-10-02T01:10:12.862Z,8.52
2022-10-02T01:10:23.365Z,8.52
2022-10-02T01:10:33.867Z,8.52
2022-10-02T01:10:44.369Z,8.52
2022-10-02T01:10:54.876Z,8.52
2022-10-02T01:11:05.381Z,8.52
2022-10-02T01:11:15.886Z,8.52
2022-10-02T01:11:26.430Z,8.53
2022-10-02T01:11:36.891Z,8.53
2022-10-02T01:11:47.398Z,8.53
2022-10-02T01:11:57.902Z,8.52
2022-10-02T01:12:08.407Z,8.50
2022-10-02T01:12:18.926Z,8.48
2022-10-02T01:12:29.426Z,8.50
2022-10-02T01:12:39.932Z,8.50
2022-10-02T01:12:50.437Z,8.48
2022-10-02T01:13:00.954Z,8.47
2022-10-02T01:13:11.450Z,8.47
2022-10-02T01:13:21.962Z,8.44
2022-10-02T01:13:32.462Z,8.44
2022-10-02T01:13:42.972Z,8.43
2022-10-02T01:13:53.477Z,8.41
2022-10-02T01:14:03.985Z,8.43
2022-10-02T01:14:14.498Z,8.41
2022-10-02T01:14:25.000Z,8.43
2022-10-02T01:14:35.511Z,8.43
2022-10-02T01:14:46.015Z,8.44
2022-10-02T01:14:56.540Z,8.44
2022-10-02T01:15:07.054Z,8.45
2022-10-02T01:15:17.542Z,8.47
2022-10-02T01:15:28.054Z,8.47
2022-10-02T01:15:38.554Z,8.47
2022-10-02T01:15:49.066Z,8.45
2022-10-02T01:15:59.610Z,8.47
2022-10-02T01:16:10.214Z,8.45
2022-10-02T01:16:20.690Z,8.45
2022-10-02T01:16:31.127Z,8.44
2022-10-02T01:16:41.645Z,8.45
2022-10-02T01:16:52.133Z,8.43
2022-10-02T01:17:02.621Z,8.43
2022-10-02T01:17:13.121Z,8.44
2022-10-02T01:17:23.631Z,8.41
2022-10-02T01:17:34.139Z,8.41
2022-10-02T01:17:44.664Z,8.43
2022-10-02T01:17:55.146Z,8.40
2022-10-02T01:18:05.661Z,8.40
2022-10-02T01:18:16.169Z,8.37
2022-10-02T01:18:26.677Z,8.37
2022-10-02T01:18:37.177Z,8.37
2022-10-02T01:18:47.693Z,8.36
2022-10-02T01:18:58.183Z,8.36
2022-10-02T01:19:08.692Z,8.36
2022-10-02T01:19:19.195Z,8.37
2022-10-02T01:19:29.711Z,8.38
2022-10-02T01:19:40.217Z,8.37
2022-10-02T01:19:50.716Z,8.37
2022-10-02T01:20:01.221Z,8.37
2022-10-02T01:20:11.730Z,8.38
2022-10-02T01:20:22.251Z,8.37
2022-10-02T01:20:32.735Z,8.37
2022-10-02T01:20:43.242Z,8.37
2022-10-02T01:20:53.766Z,8.40
2022-10-02T01:21:04.258Z,8.38
2022-10-02T01:21:14.763Z,8.40
2022-10-02T01:21:25.272Z,8.38
2022-10-02T01:21:35.781Z,8.40
2022-10-02T01:21:46.306Z,8.38
2022-10-02T01:21:56.791Z,8.41
2022-10-02T01:22:07.292Z,8.41
2022-10-02T01:22:17.803Z,8.43
2022-10-02T01:22:28.309Z,8.43
2022-10-02T01:22:38.820Z,8.44
2022-10-02T01:22:51.263Z,8.44
2022-10-02T01:22:59.847Z,8.45
2022-10-02T01:23:10.327Z,8.45
2022-10-02T01:23:20.843Z,8.44
2022-10-02T01:23:31.342Z,8.43
2022-10-02T01:23:41.851Z,8.43
2022-10-02T01:23:52.362Z,8.44
2022-10-02T01:24:02.867Z,8.41
2022-10-02T01:24:13.372Z,8.40
2022-10-02T01:24:23.880Z,8.43
2022-10-02T01:24:34.383Z,8.40
2022-10-02T01:24:44.889Z,8.40
2022-10-02T01:24:55.394Z,8.40
2022-10-02T01:25:05.909Z,8.38
2022-10-02T01:25:16.406Z,8.40
2022-10-02T01:25:26.912Z,8.40
2022-10-02T01:25:37.421Z,8.38
2022-10-02T01:25:47.923Z,8.37
2022-10-02T01:25:58.435Z,8.37
2022-10-02T01:26:08.946Z,8.38
2022-10-02T01:26:19.449Z,8.38
2022-10-02T01:26:29.958Z,8.36
2022-10-02T01:26:40.461Z,8.36
2022-10-02T01:26:50.965Z,8.34
2022-10-02T01:27:01.476Z,8.33
2022-10-02T01:27:11.977Z,8.33
2022-10-02T01:27:22.483Z,8.34
2022-10-02T01:27:36.557Z,8.33
2022-10-02T01:27:44.502Z,8.30
2022-10-02T01:27:54.108Z,8.30
2022-10-02T01:28:04.564Z,8.29
2022-10-02T01:28:15.108Z,8.28
2022-10-02T01:28:25.564Z,8.28
2022-10-02T01:28:36.039Z,8.26
2022-10-02T01:28:46.566Z,8.26
2022-10-02T01:28:57.067Z,8.28
2022-10-02T01:29:07.554Z,8.29
2022-10-02T01:29:18.062Z,8.30
2022-10-02T01:29:28.565Z,8.30
2022-10-02T01:29:39.071Z,8.30
2022-10-02T01:29:49.576Z,8.30
2022-10-02T01:30:00.101Z,8.29
2022-10-02T01:30:10.611Z,8.30
2022-10-02T01:30:21.097Z,8.30
2022-10-02T01:30:31.603Z,8.29
2022-10-02T01:30:42.112Z,8.30
2022-10-02T01:30:52.620Z,8.30
2022-10-02T01:31:03.148Z,8.30
2022-10-02T01:31:13.699Z,8.30
2022-10-02T01:31:24.210Z,8.29
2022-10-02T01:31:34.733Z,8.29
2022-10-02T01:31:45.206Z,8.28
2022-10-02T01:31:55.727Z,8.28
2022-10-02T01:32:06.179Z,8.28
2022-10-02T01:32:16.684Z,8.26
2022-10-02T01:32:27.189Z,8.28
2022-10-02T01:32:37.697Z,8.25
2022-10-02T01:32:48.210Z,8.25
2022-10-02T01:32:58.715Z,8.28
2022-10-02T01:33:09.220Z,8.28
2022-10-02T01:33:19.729Z,8.26
2022-10-02T01:33:30.233Z,8.29
2022-10-02T01:33:40.745Z,8.28
2022-10-02T01:33:51.252Z,8.29
2022-10-02T01:34:01.751Z,8.28
2022-10-02T01:34:12.265Z,8.29
2022-10-02T01:34:22.766Z,8.28
2022-10-02T01:34:33.272Z,8.30
2022-10-02T01:34:43.799Z,8.28
2022-10-02T01:34:54.289Z,8.29
2022-10-02T01:35:04.795Z,8.30
2022-10-02T01:35:15.299Z,8.33
2022-10-02T01:35:25.803Z,8.34
2022-10-02T01:35:36.319Z,8.33
2022-10-02T01:35:46.826Z,8.36
2022-10-02T01:35:57.322Z,8.34
2022-10-02T01:36:07.833Z,8.34
2022-10-02T01:36:18.337Z,8.36
2022-10-02T01:36:28.839Z,8.36
2022-10-02T01:36:39.369Z,8.36
2022-10-02T01:36:49.858Z,8.37
2022-10-02T01:37:00.388Z,8.37
2022-10-02T01:37:10.867Z,8.37
2022-10-02T01:37:21.384Z,8.36
2022-10-02T01:37:31.879Z,8.36
2022-10-02T01:37:42.390Z,8.37
2022-10-02T01:37:52.889Z,8.37
2022-10-02T01:38:03.403Z,8.37
2022-10-02T01:38:13.902Z,8.37
2022-10-02T01:38:24.409Z,8.36
2022-10-02T01:38:34.909Z,8.37
2022-10-02T01:38:45.420Z,8.38
2022-10-02T01:38:55.921Z,8.38
2022-10-02T01:39:06.429Z,8.41
2022-10-02T01:39:16.931Z,8.41
2022-10-02T01:39:27.439Z,8.43
2022-10-02T01:39:37.939Z,8.44
2022-10-02T01:39:48.449Z,8.44
2022-10-02T01:39:58.951Z,8.45
2022-10-02T01:40:09.467Z,8.45
2022-10-02T01:40:19.970Z,8.44
2022-10-02T01:40:30.495Z,8.44
2022-10-02T01:40:40.981Z,8.47
2022-10-02T01:40:51.486Z,8.48
2022-10-02T01:41:01.996Z,8.48
2022-10-02T01:41:12.548Z,8.48
2022-10-02T01:41:23.011Z,8.50
2022-10-02T01:41:33.517Z,8.48
2022-10-02T01:41:44.027Z,8.50
2022-10-02T01:41:54.536Z,8.50
2022-10-02T01:42:05.039Z,8.52
2022-10-02T01:42:15.545Z,8.50
2022-10-02T01:42:26.058Z,8.53
2022-10-02T01:42:36.562Z,8.53
2022-10-02T01:42:47.065Z,8.55
2022-10-02T01:42:57.584Z,8.55
2022-10-02T01:43:08.126Z,8.55
2022-10-02T01:43:18.590Z,8.58
2022-10-02T01:43:29.090Z,8.59
2022-10-02T01:43:39.600Z,8.70
2022-10-02T01:43:50.106Z,8.71
2022-10-02T01:44:00.608Z,8.74
2022-10-02T01:44:11.124Z,8.76
2022-10-02T01:44:21.620Z,8.79
2022-10-02T01:44:32.136Z,8.79
2022-10-02T01:44:42.647Z,8.80
2022-10-02T01:44:53.138Z,8.81
2022-10-02T01:45:03.648Z,8.81
2022-10-02T01:45:14.170Z,8.81
2022-10-02T01:45:24.733Z,8.83
2022-10-02T01:45:35.291Z,8.83
2022-10-02T01:45:45.730Z,8.83
2022-10-02T01:45:56.250Z,8.83
2022-10-02T01:46:06.776Z,8.84
2022-10-02T01:46:17.260Z,8.84
2022-10-02T01:46:27.690Z,8.87
2022-10-02T01:46:38.704Z,8.84
2022-10-02T01:46:48.707Z,8.86
2022-10-02T01:46:59.234Z,8.84
2022-10-02T01:47:09.722Z,8.84
2022-10-02T01:47:20.228Z,8.84
2022-10-02T01:47:30.738Z,8.84
2022-10-02T01:47:41.240Z,8.84
2022-10-02T01:47:51.749Z,8.84
2022-10-02T01:48:02.254Z,8.83
2022-10-02T01:48:12.765Z,8.84
2022-10-02T01:48:23.305Z,8.83
2022-10-02T01:48:33.780Z,8.83
2022-10-02T01:48:44.285Z,8.83
2022-10-02T01:48:54.797Z,8.81
2022-10-02T01:49:05.303Z,8.81
2022-10-02T01:49:15.812Z,8.83
2022-10-02T01:49:26.315Z,8.86
2022-10-02T01:49:36.817Z,8.86
2022-10-02T01:49:47.326Z,8.86
2022-10-02T01:49:57.829Z,8.86
2022-10-02T01:50:08.338Z,8.86
2022-10-02T01:50:18.845Z,8.86
2022-10-02T01:50:29.345Z,8.91
2022-10-02T01:50:39.861Z,8.94
2022-10-02T01:50:50.362Z,8.95
2022-10-02T01:51:00.872Z,8.95
2022-10-02T01:51:11.407Z,8.96
2022-10-02T01:51:21.879Z,8.96
2022-10-02T01:51:32.390Z,8.96
2022-10-02T01:51:42.892Z,8.99
2022-10-02T01:51:53.398Z,8.99
2022-10-02T01:52:03.902Z,8.99
2022-10-02T01:52:14.409Z,9.02
2022-10-02T01:52:24.918Z,9.04
2022-10-02T01:52:35.420Z,9.04
2022-10-02T01:52:45.931Z,9.05
2022-10-02T01:52:56.433Z,9.05
2022-10-02T01:53:06.945Z,9.05
2022-10-02T01:53:17.456Z,9.05
2022-10-02T01:53:27.960Z,9.05
2022-10-02T01:53:38.464Z,9.08
2022-10-02T01:53:48.979Z,9.10
2022-10-02T01:53:59.482Z,9.08
2022-10-02T01:54:09.979Z,9.11
2022-10-02T01:54:20.509Z,9.11
2022-10-02T01:54:30.998Z,9.10
2022-10-02T01:54:41.502Z,9.10
2022-10-02T01:54:52.008Z,9.10
2022-10-02T01:55:02.515Z,9.11
2022-10-02T01:55:13.011Z,9.11
2022-10-02T01:55:23.522Z,9.13
2022-10-02T01:55:34.031Z,9.10
2022-10-02T01:55:44.533Z,9.11
2022-10-02T01:55:55.038Z,9.10
2022-10-02T01:56:05.541Z,9.10
2022-10-02T01:56:16.045Z,9.11
2022-10-02T01:56:26.557Z,9.11
2022-10-02T01:56:37.501Z,9.11
2022-10-02T01:56:47.578Z,9.11
2022-10-02T01:56:58.077Z,9.11
2022-10-02T01:57:08.584Z,9.10
2022-10-02T01:57:19.103Z,9.13
2022-10-02T01:57:29.596Z,9.13
2022-10-02T01:57:40.107Z,9.14
2022-10-02T01:57:50.613Z,9.14
2022-10-02T01:58:01.119Z,9.13
2022-10-02T01:58:11.636Z,9.13
2022-10-02T01:58:22.135Z,9.17
2022-10-02T01:58:32.643Z,9.18
2022-10-02T01:58:43.147Z,9.21
2022-10-02T01:58:53.660Z,9.23
2022-10-02T01:59:04.171Z,9.24
2022-10-02T01:59:14.668Z,9.23
2022-10-02T01:59:25.194Z,9.23
2022-10-02T01:59:35.686Z,9.23
2022-10-02T01:59:46.184Z,9.24
2022-10-02T01:59:56.698Z,9.23
2022-10-02T02:00:07.202Z,9.23
2022-10-02T02:00:17.724Z,9.24
2022-10-02T02:00:28.215Z,9.24
2022-10-02T02:00:38.743Z,9.24
2022-10-02T02:00:49.249Z,9.24
2022-10-02T02:00:59.780Z,9.24
2022-10-02T02:01:10.316Z,9.26
2022-10-02T02:01:20.802Z,9.24
2022-10-02T02:01:31.297Z,9.24
2022-10-02T02:01:41.761Z,9.24
2022-10-02T02:01:52.297Z,9.26
2022-10-02T02:02:02.809Z,9.29
2022-10-02T02:02:13.317Z,9.32
2022-10-02T02:02:23.831Z,9.32
2022-10-02T02:02:34.383Z,9.35
2022-10-02T02:02:44.792Z,9.33
2022-10-02T02:02:55.301Z,9.36
2022-10-02T02:03:05.804Z,9.38
2022-10-02T02:03:16.312Z,9.38
2022-10-02T02:03:26.815Z,9.38
2022-10-02T02:03:37.325Z,9.38
2022-10-02T02:03:47.825Z,9.38
2022-10-02T02:03:58.335Z,9.38
2022-10-02T02:04:08.845Z,9.39
2022-10-02T02:04:19.349Z,9.40
2022-10-02T02:04:29.885Z,9.39
2022-10-02T02:04:40.368Z,9.39
2022-10-02T02:04:50.869Z,9.40
2022-10-02T02:05:01.381Z,9.40
2022-10-02T02:05:11.883Z,9.40
2022-10-02T02:05:22.399Z,9.42
2022-10-02T02:05:32.888Z,9.43
2022-10-02T02:05:43.392Z,9.42
2022-10-02T02:05:53.897Z,9.43
2022-10-02T02:06:04.406Z,9.43
2022-10-02T02:06:14.907Z,9.46
2022-10-02T02:06:25.414Z,9.46
2022-10-02T02:06:36.239Z,9.47
2022-10-02T02:06:46.430Z,9.46
2022-10-02T02:06:56.935Z,9.47
2022-10-02T02:07:07.438Z,9.47
2022-10-02T02:07:17.940Z,9.48
2022-10-02T02:07:28.453Z,9.48
2022-10-02T02:07:38.950Z,9.48
2022-10-02T02:07:49.460Z,9.48
2022-10-02T02:07:59.962Z,9.48
2022-10-02T02:08:10.484Z,9.50
2022-10-02T02:08:20.973Z,9.48
2022-10-02T02:08:31.481Z,9.48
2022-10-02T02:08:42.020Z,9.48
2022-10-02T02:08:52.493Z,9.50
2022-10-02T02:09:02.995Z,9.48
2022-10-02T02:09:13.504Z,9.48
2022-10-02T02:09:24.006Z,9.47
2022-10-02T02:09:34.510Z,9.47
2022-10-02T02:09:45.016Z,9.48
2022-10-02T02:09:55.529Z,9.50
2022-10-02T02:10:06.038Z,9.48
2022-10-02T02:10:16.539Z,9.48
2022-10-02T02:10:27.037Z,9.48
2022-10-02T02:10:37.551Z,9.47
2022-10-02T02:10:48.059Z,9.50
2022-10-02T02:10:58.561Z,9.48
2022-10-02T02:11:09.066Z,9.48
2022-10-02T02:11:19.572Z,9.47
2022-10-02T02:11:30.076Z,9.48
2022-10-02T02:11:40.590Z,9.47
2022-10-02T02:11:51.085Z,9.48
2022-10-02T02:12:01.589Z,9.48
2022-10-02T02:12:12.130Z,9.50
2022-10-02T02:12:22.605Z,9.50
2022-10-02T02:12:33.103Z,9.50
2022-10-02T02:12:43.621Z,9.50
2022-10-02T02:12:54.119Z,9.51
2022-10-02T02:13:04.637Z,9.51
2022-10-02T02:13:15.129Z,9.50
2022-10-02T02:13:25.640Z,9.51
2022-10-02T02:13:36.153Z,9.51
2022-10-02T02:13:46.656Z,9.51
2022-10-02T02:13:57.159Z,9.50
2022-10-02T02:14:07.665Z,9.51
2022-10-02T02:14:18.171Z,9.50
2022-10-02T02:14:28.679Z,9.53
2022-10-02T02:14:39.184Z,9.51
2022-10-02T02:14:49.695Z,9.53
2022-10-02T02:15:00.219Z,9.50
2022-10-02T02:15:10.713Z,9.51
2022-10-02T02:15:21.255Z,9.51
2022-10-02T02:15:31.717Z,9.53
2022-10-02T02:15:42.221Z,9.53
2022-10-02T02:15:52.735Z,9.51
2022-10-02T02:16:03.321Z,9.54
2022-10-02T02:16:13.801Z,9.54
2022-10-02T02:16:24.323Z,9.56
2022-10-02T02:16:35.170Z,9.56
2022-10-02T02:16:45.302Z,9.57
2022-10-02T02:16:55.870Z,9.58
2022-10-02T02:17:06.275Z,9.58
2022-10-02T02:17:16.780Z,9.58
2022-10-02T02:17:27.288Z,9.58
2022-10-02T02:17:37.794Z,9.58
2022-10-02T02:17:48.299Z,9.58
2022-10-02T02:17:58.823Z,9.60
2022-10-02T02:18:09.320Z,9.60
2022-10-02T02:18:19.833Z,9.58
2022-10-02T02:18:30.338Z,9.60
2022-10-02T02:18:40.875Z,9.58
2022-10-02T02:18:51.346Z,9.58
2022-10-02T02:19:01.858Z,9.60
2022-10-02T02:19:12.362Z,9.60
2022-10-02T02:19:22.869Z,9.61
2022-10-02T02:19:33.377Z,9.61
2022-10-02T02:19:43.891Z,9.60
2022-10-02T02:19:54.389Z,9.60